sensor_id;sensor_type;location;lat;lon;timestamp;pressure;altitude;pressure_sealevel;temperature
12918;BMP180;6526;54.312;13.092;2022-12-29T00:01:42;100597.00;;;9.90
12918;BMP180;6526;54.312;13.092;2022-12-29T00:04:11;100578.00;;;9.90
12918;BMP180;6526;54.312;13.092;2022-12-29T00:06:39;100581.00;;;9.90
12918;BMP180;6526;54.312;13.092;2022-12-29T00:09:05;100577.00;;;9.90
12918;BMP180;6526;54.312;13.092;2022-12-29T00:11:31;100580.00;;;9.90
12918;BMP180;6526;54.312;13.092;2022-12-29T00:13:57;100576.00;;;9.90
12918;BMP180;6526;54.312;13.092;2022-12-29T00:16:44;100573.00;;;9.80
12918;BMP180;6526;54.312;13.092;2022-12-29T00:19:11;100567.00;;;9.80
12918;BMP180;6526;54.312;13.092;2022-12-29T00:21:56;100565.00;;;9.80
12918;BMP180;6526;54.312;13.092;2022-12-29T00:24:41;100542.00;;;9.80
12918;BMP180;6526;54.312;13.092;2022-12-29T00:27:26;100557.00;;;9.80
12918;BMP180;6526;54.312;13.092;2022-12-29T00:30:13;100548.00;;;9.80
12918;BMP180;6526;54.312;13.092;2022-12-29T00:32:57;100543.00;;;9.80
12918;BMP180;6526;54.312;13.092;2022-12-29T00:35:53;100541.00;;;9.80
12918;BMP180;6526;54.312;13.092;2022-12-29T00:38:21;100539.00;;;9.80
12918;BMP180;6526;54.312;13.092;2022-12-29T00:41:06;100521.00;;;9.80
12918;BMP180;6526;54.312;13.092;2022-12-29T00:43:51;100530.00;;;9.70
12918;BMP180;6526;54.312;13.092;2022-12-29T00:46:33;100524.00;;;9.70
12918;BMP180;6526;54.312;13.092;2022-12-29T00:48:59;100519.00;;;9.80
12918;BMP180;6526;54.312;13.092;2022-12-29T00:51:45;100516.00;;;9.80
12918;BMP180;6526;54.312;13.092;2022-12-29T00:54:11;100527.00;;;9.80
12918;BMP180;6526;54.312;13.092;2022-12-29T00:56:38;100536.00;;;9.80
12918;BMP180;6526;54.312;13.092;2022-12-29T00:59:06;100522.00;;;9.90
12918;BMP180;6526;54.312;13.092;2022-12-29T01:01:33;100513.00;;;9.90
12918;BMP180;6526;54.312;13.092;2022-12-29T01:03:59;100497.00;;;9.70
12918;BMP180;6526;54.312;13.092;2022-12-29T01:06:26;100521.00;;;9.90
12918;BMP180;6526;54.312;13.092;2022-12-29T01:08:52;100496.00;;;9.90
12918;BMP180;6526;54.312;13.092;2022-12-29T01:11:37;100506.00;;;9.90
12918;BMP180;6526;54.312;13.092;2022-12-29T01:14:03;100508.00;;;9.80
12918;BMP180;6526;54.312;13.092;2022-12-29T01:16:29;100504.00;;;9.90
12918;BMP180;6526;54.312;13.092;2022-12-29T01:18:55;100490.00;;;9.90
12918;BMP180;6526;54.312;13.092;2022-12-29T01:21:22;100494.00;;;9.80
12918;BMP180;6526;54.312;13.092;2022-12-29T01:23:48;100504.00;;;9.80
12918;BMP180;6526;54.312;13.092;2022-12-29T01:26:16;100492.00;;;9.80
12918;BMP180;6526;54.312;13.092;2022-12-29T01:28:43;100489.00;;;9.70
12918;BMP180;6526;54.312;13.092;2022-12-29T01:31:10;100490.00;;;9.80
12918;BMP180;6526;54.312;13.092;2022-12-29T01:33:37;100486.00;;;9.80
12918;BMP180;6526;54.312;13.092;2022-12-29T01:36:08;100494.00;;;9.80
12918;BMP180;6526;54.312;13.092;2022-12-29T01:38:36;100477.00;;;9.90
12918;BMP180;6526;54.312;13.092;2022-12-29T01:41:03;100473.00;;;9.80
12918;BMP180;6526;54.312;13.092;2022-12-29T01:43:54;100472.00;;;9.90
12918;BMP180;6526;54.312;13.092;2022-12-29T01:46:44;100460.00;;;9.90
12918;BMP180;6526;54.312;13.092;2022-12-29T01:49:16;100466.00;;;9.90
12918;BMP180;6526;54.312;13.092;2022-12-29T01:51:47;100463.00;;;9.90
12918;BMP180;6526;54.312;13.092;2022-12-29T01:54:21;100453.00;;;9.80
12918;BMP180;6526;54.312;13.092;2022-12-29T01:56:49;100455.00;;;9.70
12918;BMP180;6526;54.312;13.092;2022-12-29T01:59:19;100459.00;;;9.80
12918;BMP180;6526;54.312;13.092;2022-12-29T02:01:46;100447.00;;;9.80
12918;BMP180;6526;54.312;13.092;2022-12-29T02:04:13;100458.00;;;9.90
12918;BMP180;6526;54.312;13.092;2022-12-29T02:07:00;100452.00;;;9.90
12918;BMP180;6526;54.312;13.092;2022-12-29T02:09:27;100442.00;;;9.90
12918;BMP180;6526;54.312;13.092;2022-12-29T02:11:53;100444.00;;;9.90
12918;BMP180;6526;54.312;13.092;2022-12-29T02:14:19;100448.00;;;9.80
12918;BMP180;6526;54.312;13.092;2022-12-29T02:17:08;100439.00;;;10.00
12918;BMP180;6526;54.312;13.092;2022-12-29T02:25:20;100429.00;;;10.10
12918;BMP180;6526;54.312;13.092;2022-12-29T02:28:22;100424.00;;;10.20
12918;BMP180;6526;54.312;13.092;2022-12-29T02:31:20;100415.00;;;10.00
12918;BMP180;6526;54.312;13.092;2022-12-29T02:33:53;100417.00;;;10.00
12918;BMP180;6526;54.312;13.092;2022-12-29T02:39:35;100409.00;;;10.10
12918;BMP180;6526;54.312;13.092;2022-12-29T02:45:22;100405.00;;;10.00
12918;BMP180;6526;54.312;13.092;2022-12-29T02:51:00;100405.00;;;10.20
12918;BMP180;6526;54.312;13.092;2022-12-29T02:53:29;100403.00;;;10.30
12918;BMP180;6526;54.312;13.092;2022-12-29T02:56:15;100425.00;;;10.30
12918;BMP180;6526;54.312;13.092;2022-12-29T02:58:41;100400.00;;;10.30
12918;BMP180;6526;54.312;13.092;2022-12-29T03:01:33;100409.00;;;10.30
12918;BMP180;6526;54.312;13.092;2022-12-29T03:04:13;100396.00;;;10.30
12918;BMP180;6526;54.312;13.092;2022-12-29T03:09:50;100396.00;;;10.30
12918;BMP180;6526;54.312;13.092;2022-12-29T03:12:30;100385.00;;;10.30
12918;BMP180;6526;54.312;13.092;2022-12-29T03:15:34;100386.00;;;10.40
12918;BMP180;6526;54.312;13.092;2022-12-29T03:19:00;100383.00;;;10.40
12918;BMP180;6526;54.312;13.092;2022-12-29T03:21:44;100369.00;;;10.40
12918;BMP180;6526;54.312;13.092;2022-12-29T03:24:34;100364.00;;;10.40
12918;BMP180;6526;54.312;13.092;2022-12-29T03:27:05;100359.00;;;10.30
12918;BMP180;6526;54.312;13.092;2022-12-29T03:29:35;100371.00;;;10.40
12918;BMP180;6526;54.312;13.092;2022-12-29T03:32:05;100372.00;;;10.40
12918;BMP180;6526;54.312;13.092;2022-12-29T03:34:33;100371.00;;;10.40
12918;BMP180;6526;54.312;13.092;2022-12-29T03:37:10;100362.00;;;10.40
12918;BMP180;6526;54.312;13.092;2022-12-29T03:39:37;100360.00;;;10.30
12918;BMP180;6526;54.312;13.092;2022-12-29T03:42:06;100368.00;;;10.50
12918;BMP180;6526;54.312;13.092;2022-12-29T03:44:36;100335.00;;;10.50
12918;BMP180;6526;54.312;13.092;2022-12-29T03:47:03;100325.00;;;10.50
12918;BMP180;6526;54.312;13.092;2022-12-29T03:49:29;100324.00;;;10.40
12918;BMP180;6526;54.312;13.092;2022-12-29T03:51:55;100324.00;;;10.40
12918;BMP180;6526;54.312;13.092;2022-12-29T03:54:22;100331.00;;;10.30
12918;BMP180;6526;54.312;13.092;2022-12-29T03:56:48;100348.00;;;10.40
12918;BMP180;6526;54.312;13.092;2022-12-29T03:59:14;100354.00;;;10.40
12918;BMP180;6526;54.312;13.092;2022-12-29T04:01:40;100347.00;;;10.30
12918;BMP180;6526;54.312;13.092;2022-12-29T04:04:06;100351.00;;;10.40
12918;BMP180;6526;54.312;13.092;2022-12-29T04:06:32;100335.00;;;10.40
12918;BMP180;6526;54.312;13.092;2022-12-29T04:08:58;100350.00;;;10.50
12918;BMP180;6526;54.312;13.092;2022-12-29T04:11:24;100330.00;;;10.50
12918;BMP180;6526;54.312;13.092;2022-12-29T04:13:50;100349.00;;;10.50
12918;BMP180;6526;54.312;13.092;2022-12-29T04:16:16;100340.00;;;10.40
12918;BMP180;6526;54.312;13.092;2022-12-29T04:18:42;100344.00;;;10.40
12918;BMP180;6526;54.312;13.092;2022-12-29T04:21:08;100340.00;;;10.40
12918;BMP180;6526;54.312;13.092;2022-12-29T04:23:37;100343.00;;;10.40
12918;BMP180;6526;54.312;13.092;2022-12-29T04:26:04;100338.00;;;10.40
12918;BMP180;6526;54.312;13.092;2022-12-29T04:28:32;100337.00;;;10.40
12918;BMP180;6526;54.312;13.092;2022-12-29T04:30:59;100340.00;;;10.40
12918;BMP180;6526;54.312;13.092;2022-12-29T04:33:25;100319.00;;;10.40
12918;BMP180;6526;54.312;13.092;2022-12-29T04:35:51;100335.00;;;10.40
12918;BMP180;6526;54.312;13.092;2022-12-29T04:38:21;100322.00;;;10.40
12918;BMP180;6526;54.312;13.092;2022-12-29T04:40:48;100313.00;;;10.50
12918;BMP180;6526;54.312;13.092;2022-12-29T04:43:15;100322.00;;;10.50
12918;BMP180;6526;54.312;13.092;2022-12-29T04:45:45;100316.00;;;10.50
12918;BMP180;6526;54.312;13.092;2022-12-29T04:48:11;100311.00;;;10.50
12918;BMP180;6526;54.312;13.092;2022-12-29T04:50:37;100302.00;;;10.40
12918;BMP180;6526;54.312;13.092;2022-12-29T04:53:04;100304.00;;;10.60
12918;BMP180;6526;54.312;13.092;2022-12-29T04:55:30;100310.00;;;10.50
12918;BMP180;6526;54.312;13.092;2022-12-29T04:57:56;100309.00;;;10.60
12918;BMP180;6526;54.312;13.092;2022-12-29T05:00:22;100304.00;;;10.60
12918;BMP180;6526;54.312;13.092;2022-12-29T05:02:48;100314.00;;;10.60
12918;BMP180;6526;54.312;13.092;2022-12-29T05:05:14;100310.00;;;10.60
12918;BMP180;6526;54.312;13.092;2022-12-29T05:07:40;100312.00;;;10.60
12918;BMP180;6526;54.312;13.092;2022-12-29T05:10:07;100286.00;;;10.50
12918;BMP180;6526;54.312;13.092;2022-12-29T05:12:34;100293.00;;;10.60
12918;BMP180;6526;54.312;13.092;2022-12-29T05:15:01;100306.00;;;10.60
12918;BMP180;6526;54.312;13.092;2022-12-29T05:17:29;100299.00;;;10.60
12918;BMP180;6526;54.312;13.092;2022-12-29T05:19:55;100292.00;;;10.60
12918;BMP180;6526;54.312;13.092;2022-12-29T05:22:21;100293.00;;;10.70
12918;BMP180;6526;54.312;13.092;2022-12-29T05:24:47;100287.00;;;10.70
12918;BMP180;6526;54.312;13.092;2022-12-29T05:27:13;100279.00;;;10.70
12918;BMP180;6526;54.312;13.092;2022-12-29T05:29:39;100272.00;;;10.70
12918;BMP180;6526;54.312;13.092;2022-12-29T05:32:06;100278.00;;;10.70
12918;BMP180;6526;54.312;13.092;2022-12-29T05:34:32;100267.00;;;10.70
12918;BMP180;6526;54.312;13.092;2022-12-29T05:36:58;100281.00;;;10.80
12918;BMP180;6526;54.312;13.092;2022-12-29T05:39:24;100263.00;;;10.70
12918;BMP180;6526;54.312;13.092;2022-12-29T05:41:50;100261.00;;;10.80
12918;BMP180;6526;54.312;13.092;2022-12-29T05:44:16;100261.00;;;10.70
12918;BMP180;6526;54.312;13.092;2022-12-29T05:46:42;100244.00;;;10.70
12918;BMP180;6526;54.312;13.092;2022-12-29T05:49:08;100248.00;;;10.80
12918;BMP180;6526;54.312;13.092;2022-12-29T05:51:34;100255.00;;;10.80
12918;BMP180;6526;54.312;13.092;2022-12-29T05:54:00;100251.00;;;10.90
12918;BMP180;6526;54.312;13.092;2022-12-29T05:56:26;100247.00;;;10.90
12918;BMP180;6526;54.312;13.092;2022-12-29T05:58:52;100274.00;;;10.90
12918;BMP180;6526;54.312;13.092;2022-12-29T06:01:18;100253.00;;;10.90
12918;BMP180;6526;54.312;13.092;2022-12-29T06:03:44;100257.00;;;10.80
12918;BMP180;6526;54.312;13.092;2022-12-29T06:06:10;100248.00;;;10.90
12918;BMP180;6526;54.312;13.092;2022-12-29T06:08:36;100255.00;;;10.80
12918;BMP180;6526;54.312;13.092;2022-12-29T06:11:02;100247.00;;;10.90
12918;BMP180;6526;54.312;13.092;2022-12-29T06:13:28;100254.00;;;10.80
12918;BMP180;6526;54.312;13.092;2022-12-29T06:15:54;100247.00;;;10.90
12918;BMP180;6526;54.312;13.092;2022-12-29T06:18:20;100247.00;;;10.90
12918;BMP180;6526;54.312;13.092;2022-12-29T06:20:47;100246.00;;;11.00
12918;BMP180;6526;54.312;13.092;2022-12-29T06:23:13;100238.00;;;11.00
12918;BMP180;6526;54.312;13.092;2022-12-29T06:25:39;100239.00;;;11.10
12918;BMP180;6526;54.312;13.092;2022-12-29T06:28:05;100227.00;;;11.00
12918;BMP180;6526;54.312;13.092;2022-12-29T06:30:32;100234.00;;;10.90
12918;BMP180;6526;54.312;13.092;2022-12-29T06:32:58;100250.00;;;11.00
12918;BMP180;6526;54.312;13.092;2022-12-29T06:35:25;100251.00;;;11.00
12918;BMP180;6526;54.312;13.092;2022-12-29T06:37:51;100244.00;;;11.00
12918;BMP180;6526;54.312;13.092;2022-12-29T06:40:17;100243.00;;;11.00
12918;BMP180;6526;54.312;13.092;2022-12-29T06:42:43;100241.00;;;11.00
12918;BMP180;6526;54.312;13.092;2022-12-29T06:45:09;100243.00;;;11.10
12918;BMP180;6526;54.312;13.092;2022-12-29T06:47:36;100235.00;;;11.10
12918;BMP180;6526;54.312;13.092;2022-12-29T06:50:02;100241.00;;;11.10
12918;BMP180;6526;54.312;13.092;2022-12-29T06:52:28;100244.00;;;11.10
12918;BMP180;6526;54.312;13.092;2022-12-29T06:54:55;100242.00;;;11.10
12918;BMP180;6526;54.312;13.092;2022-12-29T06:57:21;100234.00;;;11.10
12918;BMP180;6526;54.312;13.092;2022-12-29T06:59:47;100243.00;;;11.10
12918;BMP180;6526;54.312;13.092;2022-12-29T07:02:14;100244.00;;;11.10
12918;BMP180;6526;54.312;13.092;2022-12-29T07:04:40;100239.00;;;11.10
12918;BMP180;6526;54.312;13.092;2022-12-29T07:07:06;100257.00;;;11.20
12918;BMP180;6526;54.312;13.092;2022-12-29T07:09:32;100238.00;;;11.20
12918;BMP180;6526;54.312;13.092;2022-12-29T07:11:58;100230.00;;;11.20
12918;BMP180;6526;54.312;13.092;2022-12-29T07:14:24;100243.00;;;11.20
12918;BMP180;6526;54.312;13.092;2022-12-29T07:16:50;100239.00;;;11.20
12918;BMP180;6526;54.312;13.092;2022-12-29T07:19:16;100237.00;;;11.20
12918;BMP180;6526;54.312;13.092;2022-12-29T07:21:42;100247.00;;;11.30
12918;BMP180;6526;54.312;13.092;2022-12-29T07:24:09;100237.00;;;11.20
12918;BMP180;6526;54.312;13.092;2022-12-29T07:26:35;100237.00;;;11.10
12918;BMP180;6526;54.312;13.092;2022-12-29T07:29:02;100240.00;;;11.10
12918;BMP180;6526;54.312;13.092;2022-12-29T07:31:28;100250.00;;;11.10
12918;BMP180;6526;54.312;13.092;2022-12-29T07:33:55;100239.00;;;11.20
12918;BMP180;6526;54.312;13.092;2022-12-29T07:36:21;100245.00;;;11.20
12918;BMP180;6526;54.312;13.092;2022-12-29T07:38:47;100253.00;;;11.30
12918;BMP180;6526;54.312;13.092;2022-12-29T07:41:13;100239.00;;;11.30
12918;BMP180;6526;54.312;13.092;2022-12-29T07:43:39;100236.00;;;11.20
12918;BMP180;6526;54.312;13.092;2022-12-29T07:46:05;100234.00;;;11.30
12918;BMP180;6526;54.312;13.092;2022-12-29T07:48:31;100233.00;;;11.30
12918;BMP180;6526;54.312;13.092;2022-12-29T07:50:59;100236.00;;;11.30
12918;BMP180;6526;54.312;13.092;2022-12-29T07:53:25;100232.00;;;11.30
12918;BMP180;6526;54.312;13.092;2022-12-29T07:55:51;100237.00;;;11.30
12918;BMP180;6526;54.312;13.092;2022-12-29T07:58:17;100253.00;;;11.20
12918;BMP180;6526;54.312;13.092;2022-12-29T08:00:44;100243.00;;;11.40
12918;BMP180;6526;54.312;13.092;2022-12-29T08:03:10;100249.00;;;11.30
12918;BMP180;6526;54.312;13.092;2022-12-29T08:05:36;100251.00;;;11.20
12918;BMP180;6526;54.312;13.092;2022-12-29T08:08:02;100248.00;;;11.30
12918;BMP180;6526;54.312;13.092;2022-12-29T08:10:28;100257.00;;;11.40
12918;BMP180;6526;54.312;13.092;2022-12-29T08:12:54;100251.00;;;11.40
12918;BMP180;6526;54.312;13.092;2022-12-29T08:15:20;100253.00;;;11.30
12918;BMP180;6526;54.312;13.092;2022-12-29T08:17:46;100243.00;;;11.40
12918;BMP180;6526;54.312;13.092;2022-12-29T08:20:12;100244.00;;;11.30
12918;BMP180;6526;54.312;13.092;2022-12-29T08:22:39;100240.00;;;11.40
12918;BMP180;6526;54.312;13.092;2022-12-29T08:25:05;100235.00;;;11.50
12918;BMP180;6526;54.312;13.092;2022-12-29T08:27:31;100237.00;;;11.50
12918;BMP180;6526;54.312;13.092;2022-12-29T08:29:57;100228.00;;;11.40
12918;BMP180;6526;54.312;13.092;2022-12-29T08:32:26;100222.00;;;11.50
12918;BMP180;6526;54.312;13.092;2022-12-29T08:34:54;100204.00;;;11.50
12918;BMP180;6526;54.312;13.092;2022-12-29T08:37:20;100213.00;;;11.40
12918;BMP180;6526;54.312;13.092;2022-12-29T08:39:46;100217.00;;;11.50
12918;BMP180;6526;54.312;13.092;2022-12-29T08:42:12;100217.00;;;11.60
12918;BMP180;6526;54.312;13.092;2022-12-29T08:44:38;100214.00;;;11.50
12918;BMP180;6526;54.312;13.092;2022-12-29T08:47:04;100219.00;;;11.60
12918;BMP180;6526;54.312;13.092;2022-12-29T08:49:31;100216.00;;;11.60
12918;BMP180;6526;54.312;13.092;2022-12-29T08:51:59;100220.00;;;11.70
12918;BMP180;6526;54.312;13.092;2022-12-29T08:54:25;100211.00;;;11.80
12918;BMP180;6526;54.312;13.092;2022-12-29T08:56:51;100218.00;;;11.80
12918;BMP180;6526;54.312;13.092;2022-12-29T08:59:17;100226.00;;;11.80
12918;BMP180;6526;54.312;13.092;2022-12-29T09:01:43;100227.00;;;11.80
12918;BMP180;6526;54.312;13.092;2022-12-29T09:04:09;100222.00;;;11.90
12918;BMP180;6526;54.312;13.092;2022-12-29T09:06:35;100232.00;;;11.90
12918;BMP180;6526;54.312;13.092;2022-12-29T09:09:01;100226.00;;;12.00
12918;BMP180;6526;54.312;13.092;2022-12-29T09:11:27;100236.00;;;11.90
12918;BMP180;6526;54.312;13.092;2022-12-29T09:13:54;100198.00;;;12.00
12918;BMP180;6526;54.312;13.092;2022-12-29T09:16:22;100220.00;;;12.10
12918;BMP180;6526;54.312;13.092;2022-12-29T09:18:48;100225.00;;;12.10
12918;BMP180;6526;54.312;13.092;2022-12-29T09:21:14;100216.00;;;12.20
12918;BMP180;6526;54.312;13.092;2022-12-29T09:23:41;100236.00;;;12.20
12918;BMP180;6526;54.312;13.092;2022-12-29T09:26:08;100240.00;;;12.30
12918;BMP180;6526;54.312;13.092;2022-12-29T09:28:34;100246.00;;;12.30
12918;BMP180;6526;54.312;13.092;2022-12-29T09:31:00;100239.00;;;12.40
12918;BMP180;6526;54.312;13.092;2022-12-29T09:33:26;100250.00;;;12.30
12918;BMP180;6526;54.312;13.092;2022-12-29T09:35:57;100254.00;;;12.40
12918;BMP180;6526;54.312;13.092;2022-12-29T09:38:24;100250.00;;;12.40
12918;BMP180;6526;54.312;13.092;2022-12-29T09:41:18;100251.00;;;12.50
12918;BMP180;6526;54.312;13.092;2022-12-29T09:46:32;100253.00;;;12.40
12918;BMP180;6526;54.312;13.092;2022-12-29T09:49:21;100271.00;;;12.40
12918;BMP180;6526;54.312;13.092;2022-12-29T09:51:52;100258.00;;;12.30
12918;BMP180;6526;54.312;13.092;2022-12-29T09:54:39;100249.00;;;12.20
12918;BMP180;6526;54.312;13.092;2022-12-29T09:57:25;100252.00;;;12.30
12918;BMP180;6526;54.312;13.092;2022-12-29T09:59:57;100251.00;;;12.30
12918;BMP180;6526;54.312;13.092;2022-12-29T10:02:36;100254.00;;;12.30
12918;BMP180;6526;54.312;13.092;2022-12-29T10:05:03;100244.00;;;12.40
12918;BMP180;6526;54.312;13.092;2022-12-29T10:07:37;100241.00;;;12.40
12918;BMP180;6526;54.312;13.092;2022-12-29T10:10:55;100252.00;;;12.40
12918;BMP180;6526;54.312;13.092;2022-12-29T10:13:01;100261.00;;;12.50
12918;BMP180;6526;54.312;13.092;2022-12-29T10:21:33;100257.00;;;12.40
12918;BMP180;6526;54.312;13.092;2022-12-29T10:24:04;100243.00;;;12.30
12918;BMP180;6526;54.312;13.092;2022-12-29T10:26:36;100247.00;;;12.30
12918;BMP180;6526;54.312;13.092;2022-12-29T10:29:13;100239.00;;;12.30
12918;BMP180;6526;54.312;13.092;2022-12-29T10:31:55;100230.00;;;12.30
12918;BMP180;6526;54.312;13.092;2022-12-29T10:34:27;100230.00;;;12.30
12918;BMP180;6526;54.312;13.092;2022-12-29T10:37:08;100205.00;;;12.30
12918;BMP180;6526;54.312;13.092;2022-12-29T10:39:49;100206.00;;;12.30
12918;BMP180;6526;54.312;13.092;2022-12-29T10:42:23;100220.00;;;12.30
12918;BMP180;6526;54.312;13.092;2022-12-29T10:44:51;100220.00;;;12.30
12918;BMP180;6526;54.312;13.092;2022-12-29T10:47:22;100218.00;;;12.50
12918;BMP180;6526;54.312;13.092;2022-12-29T10:49:49;100230.00;;;12.60
12918;BMP180;6526;54.312;13.092;2022-12-29T10:52:17;100233.00;;;12.60
12918;BMP180;6526;54.312;13.092;2022-12-29T10:55:02;100231.00;;;12.60
12918;BMP180;6526;54.312;13.092;2022-12-29T10:57:39;100236.00;;;12.70
12918;BMP180;6526;54.312;13.092;2022-12-29T11:00:13;100256.00;;;12.80
12918;BMP180;6526;54.312;13.092;2022-12-29T11:08:20;100244.00;;;12.70
12918;BMP180;6526;54.312;13.092;2022-12-29T11:10:46;100247.00;;;12.90
12918;BMP180;6526;54.312;13.092;2022-12-29T11:13:27;100233.00;;;13.10
12918;BMP180;6526;54.312;13.092;2022-12-29T11:15:53;100230.00;;;13.30
12918;BMP180;6526;54.312;13.092;2022-12-29T11:18:31;100237.00;;;13.60
12918;BMP180;6526;54.312;13.092;2022-12-29T11:21:02;100237.00;;;13.90
12918;BMP180;6526;54.312;13.092;2022-12-29T11:23:41;100227.00;;;14.00
12918;BMP180;6526;54.312;13.092;2022-12-29T11:28:40;100233.00;;;14.20
12918;BMP180;6526;54.312;13.092;2022-12-29T11:31:08;100235.00;;;14.00
12918;BMP180;6526;54.312;13.092;2022-12-29T11:33:36;100238.00;;;13.70
12918;BMP180;6526;54.312;13.092;2022-12-29T11:36:08;100239.00;;;13.50
12918;BMP180;6526;54.312;13.092;2022-12-29T11:38:41;100242.00;;;13.30
12918;BMP180;6526;54.312;13.092;2022-12-29T11:41:20;100244.00;;;13.10
12918;BMP180;6526;54.312;13.092;2022-12-29T11:43:46;100253.00;;;13.00
12918;BMP180;6526;54.312;13.092;2022-12-29T11:46:26;100250.00;;;13.10
12918;BMP180;6526;54.312;13.092;2022-12-29T11:48:53;100248.00;;;13.10
12918;BMP180;6526;54.312;13.092;2022-12-29T11:51:36;100249.00;;;13.10
12918;BMP180;6526;54.312;13.092;2022-12-29T11:54:04;100252.00;;;13.20
12918;BMP180;6526;54.312;13.092;2022-12-29T11:56:36;100247.00;;;13.20
12918;BMP180;6526;54.312;13.092;2022-12-29T12:04:46;100251.00;;;13.00
12918;BMP180;6526;54.312;13.092;2022-12-29T12:07:17;100251.00;;;13.10
12918;BMP180;6526;54.312;13.092;2022-12-29T12:09:51;100262.00;;;13.10
12918;BMP180;6526;54.312;13.092;2022-12-29T12:12:29;100253.00;;;13.30
12918;BMP180;6526;54.312;13.092;2022-12-29T12:15:00;100239.00;;;13.30
12918;BMP180;6526;54.312;13.092;2022-12-29T12:17:44;100251.00;;;13.40
12918;BMP180;6526;54.312;13.092;2022-12-29T12:20:21;100260.00;;;13.40
12918;BMP180;6526;54.312;13.092;2022-12-29T12:23:19;100242.00;;;13.30
12918;BMP180;6526;54.312;13.092;2022-12-29T12:26:02;100253.00;;;13.20
12918;BMP180;6526;54.312;13.092;2022-12-29T12:28:53;100251.00;;;13.20
12918;BMP180;6526;54.312;13.092;2022-12-29T12:34:19;100263.00;;;13.30
12918;BMP180;6526;54.312;13.092;2022-12-29T12:42:17;100262.00;;;13.20
12918;BMP180;6526;54.312;13.092;2022-12-29T12:48:00;100264.00;;;13.20
12918;BMP180;6526;54.312;13.092;2022-12-29T12:53:22;100277.00;;;13.10
12918;BMP180;6526;54.312;13.092;2022-12-29T12:56:36;100255.00;;;13.00
12918;BMP180;6526;54.312;13.092;2022-12-29T12:59:09;100272.00;;;13.00
12918;BMP180;6526;54.312;13.092;2022-12-29T13:05:03;100262.00;;;12.90
12918;BMP180;6526;54.312;13.092;2022-12-29T13:10:42;100268.00;;;12.90
12918;BMP180;6526;54.312;13.092;2022-12-29T13:24:41;100276.00;;;13.00
12918;BMP180;6526;54.312;13.092;2022-12-29T13:27:33;100279.00;;;13.10
12918;BMP180;6526;54.312;13.092;2022-12-29T13:30:34;100276.00;;;13.00
12918;BMP180;6526;54.312;13.092;2022-12-29T13:33:26;100293.00;;;13.20
12918;BMP180;6526;54.312;13.092;2022-12-29T13:41:59;100300.00;;;13.00
12918;BMP180;6526;54.312;13.092;2022-12-29T13:44:45;100295.00;;;13.00
12918;BMP180;6526;54.312;13.092;2022-12-29T13:50:19;100303.00;;;12.80
12918;BMP180;6526;54.312;13.092;2022-12-29T13:55:32;100302.00;;;12.90
12918;BMP180;6526;54.312;13.092;2022-12-29T14:01:03;100309.00;;;12.80
12918;BMP180;6526;54.312;13.092;2022-12-29T14:03:51;100307.00;;;12.80
12918;BMP180;6526;54.312;13.092;2022-12-29T14:06:28;100304.00;;;12.80
12918;BMP180;6526;54.312;13.092;2022-12-29T14:08:58;100301.00;;;12.90
12918;BMP180;6526;54.312;13.092;2022-12-29T14:11:34;100314.00;;;12.90
12918;BMP180;6526;54.312;13.092;2022-12-29T14:14:18;100309.00;;;12.80
12918;BMP180;6526;54.312;13.092;2022-12-29T14:16:44;100318.00;;;12.90
12918;BMP180;6526;54.312;13.092;2022-12-29T14:19:26;100325.00;;;13.00
12918;BMP180;6526;54.312;13.092;2022-12-29T14:22:00;100321.00;;;12.90
12918;BMP180;6526;54.312;13.092;2022-12-29T14:37:29;100318.00;;;12.90
12918;BMP180;6526;54.312;13.092;2022-12-29T14:40:22;100325.00;;;13.00
12918;BMP180;6526;54.312;13.092;2022-12-29T14:42:54;100322.00;;;13.00
12918;BMP180;6526;54.312;13.092;2022-12-29T14:47:49;100331.00;;;13.00
12918;BMP180;6526;54.312;13.092;2022-12-29T14:50:39;100323.00;;;12.90
12918;BMP180;6526;54.312;13.092;2022-12-29T14:53:10;100335.00;;;13.00
12918;BMP180;6526;54.312;13.092;2022-12-29T14:55:57;100341.00;;;12.90
12918;BMP180;6526;54.312;13.092;2022-12-29T14:58:37;100332.00;;;12.80
12918;BMP180;6526;54.312;13.092;2022-12-29T15:01:19;100333.00;;;12.90
12918;BMP180;6526;54.312;13.092;2022-12-29T15:03:50;100345.00;;;12.90
12918;BMP180;6526;54.312;13.092;2022-12-29T15:06:17;100330.00;;;12.90
12918;BMP180;6526;54.312;13.092;2022-12-29T15:09:12;100341.00;;;12.90
12918;BMP180;6526;54.312;13.092;2022-12-29T15:14:38;100325.00;;;12.90
12918;BMP180;6526;54.312;13.092;2022-12-29T15:17:26;100340.00;;;12.90
12918;BMP180;6526;54.312;13.092;2022-12-29T15:19:54;100336.00;;;12.80
12918;BMP180;6526;54.312;13.092;2022-12-29T15:22:21;100340.00;;;12.90
12918;BMP180;6526;54.312;13.092;2022-12-29T15:24:48;100335.00;;;12.90
12918;BMP180;6526;54.312;13.092;2022-12-29T15:27:19;100337.00;;;12.80
12918;BMP180;6526;54.312;13.092;2022-12-29T15:29:46;100347.00;;;12.90
12918;BMP180;6526;54.312;13.092;2022-12-29T15:34:42;100350.00;;;12.80
12918;BMP180;6526;54.312;13.092;2022-12-29T15:37:09;100351.00;;;12.80
12918;BMP180;6526;54.312;13.092;2022-12-29T15:39:35;100343.00;;;12.90
12918;BMP180;6526;54.312;13.092;2022-12-29T15:42:03;100351.00;;;12.80
12918;BMP180;6526;54.312;13.092;2022-12-29T15:44:42;100349.00;;;12.80
12918;BMP180;6526;54.312;13.092;2022-12-29T15:49:38;100363.00;;;12.80
12918;BMP180;6526;54.312;13.092;2022-12-29T15:52:08;100367.00;;;12.80
12918;BMP180;6526;54.312;13.092;2022-12-29T15:54:35;100357.00;;;12.80
12918;BMP180;6526;54.312;13.092;2022-12-29T15:57:02;100377.00;;;12.90
12918;BMP180;6526;54.312;13.092;2022-12-29T15:59:33;100375.00;;;13.00
12918;BMP180;6526;54.312;13.092;2022-12-29T16:02:01;100384.00;;;12.90
12918;BMP180;6526;54.312;13.092;2022-12-29T16:04:30;100391.00;;;12.90
12918;BMP180;6526;54.312;13.092;2022-12-29T16:07:03;100396.00;;;12.90
12918;BMP180;6526;54.312;13.092;2022-12-29T16:09:34;100388.00;;;12.70
12918;BMP180;6526;54.312;13.092;2022-12-29T16:12:06;100391.00;;;12.70
12918;BMP180;6526;54.312;13.092;2022-12-29T16:14:42;100391.00;;;12.90